createdAt,value
2023-03-24T00:00:20.305Z,55.23
2023-03-24T00:02:49.367Z,55.48
2023-03-24T00:05:19.204Z,55.70
2023-03-24T00:07:47.089Z,56.02
2023-03-24T00:10:18.424Z,55.31
2023-03-24T00:12:47.920Z,55.46
2023-03-24T00:15:19.157Z,55.64
2023-03-24T00:17:50.374Z,55.28
2023-03-24T00:20:20.892Z,55.20
2023-03-24T00:22:57.126Z,55.58
2023-03-24T00:25:36.185Z,55.64
2023-03-24T00:28:06.522Z,55.14
2023-03-24T00:30:35.110Z,55.03
2023-03-24T00:33:02.237Z,54.82
2023-03-24T00:35:29.311Z,54.97
2023-03-24T00:37:56.183Z,55.47
2023-03-24T00:40:23.010Z,55.16
2023-03-24T00:42:50.791Z,54.63
2023-03-24T00:45:23.043Z,54.56
2023-03-24T00:47:54.315Z,55.02
2023-03-24T00:50:26.493Z,55.01
2023-03-24T00:52:55.951Z,55.40
2023-03-24T00:55:23.136Z,55.40
2023-03-24T00:57:51.436Z,54.54
2023-03-24T01:00:24.918Z,54.20
2023-03-24T01:02:57.514Z,54.76
2023-03-24T01:05:28.408Z,55.00
2023-03-24T01:08:06.261Z,54.21
2023-03-24T01:10:50.571Z,54.28
2023-03-24T01:13:18.745Z,54.59
2023-03-24T01:15:46.341Z,54.68
2023-03-24T01:18:15.043Z,54.00
2023-03-24T01:20:47.119Z,54.36
2023-03-24T01:23:17.290Z,54.42
2023-03-24T01:25:48.369Z,54.12
2023-03-24T01:28:18.708Z,54.44
2023-03-24T01:30:46.120Z,55.19
2023-03-24T01:33:13.687Z,55.74
2023-03-24T01:35:40.871Z,54.85
2023-03-24T01:38:10.628Z,54.76
2023-03-24T01:40:39.619Z,54.40
2023-03-24T01:43:09.932Z,54.50
2023-03-24T01:45:42.867Z,55.07
2023-03-24T01:48:30.123Z,54.41
2023-03-24T01:51:37.145Z,54.11
2023-03-24T01:54:25.415Z,54.14
2023-03-24T01:57:10.150Z,54.14
2023-03-24T01:59:44.515Z,54.41
2023-03-24T02:02:22.271Z,54.14
2023-03-24T02:04:59.990Z,54.40
2023-03-24T02:07:59.821Z,54.33
2023-03-24T02:10:33.937Z,53.88
2023-03-24T02:13:01.659Z,54.69
2023-03-24T02:15:31.691Z,54.59
2023-03-24T02:18:08.519Z,54.08
2023-03-24T02:20:46.970Z,54.14
2023-03-24T02:23:38.400Z,54.25
2023-03-24T02:26:36.463Z,54.16
2023-03-24T02:29:50.138Z,53.89
2023-03-24T02:32:41.888Z,54.16
2023-03-24T02:35:30.629Z,54.25
2023-03-24T02:38:23.993Z,54.58
2023-03-24T02:41:01.989Z,54.41
2023-03-24T02:43:32.525Z,53.87
2023-03-24T02:46:22.613Z,53.93
2023-03-24T02:48:49.754Z,53.96
2023-03-24T02:51:40.769Z,53.65
2023-03-24T02:54:11.687Z,53.77
2023-03-24T02:57:06.179Z,52.72
2023-03-24T03:00:24.320Z,53.20
2023-03-24T03:03:09.142Z,53.15
2023-03-24T03:05:44.722Z,52.93
2023-03-24T03:08:15.179Z,53.03
2023-03-24T03:10:46.541Z,52.55
2023-03-24T03:13:25.410Z,52.52
2023-03-24T03:15:58.835Z,53.03
2023-03-24T03:18:36.015Z,52.73
2023-03-24T03:21:10.457Z,52.19
2023-03-24T03:23:55.043Z,52.23
2023-03-24T03:26:26.801Z,51.90
2023-03-24T03:29:00.202Z,52.25
2023-03-24T03:31:35.733Z,51.59
2023-03-24T03:34:28.571Z,51.23
2023-03-24T03:37:10.232Z,51.40
2023-03-24T03:39:48.866Z,51.24
2023-03-24T03:42:16.755Z,51.99
2023-03-24T03:44:44.423Z,51.36
2023-03-24T03:47:14.631Z,51.53
2023-03-24T03:49:46.276Z,51.43
2023-03-24T03:52:19.882Z,51.30
2023-03-24T03:54:50.830Z,51.25
2023-03-24T03:57:21.357Z,51.41
2023-03-24T04:00:20.160Z,51.06
2023-03-24T04:03:19.592Z,51.53
2023-03-24T04:06:02.528Z,51.39
2023-03-24T04:08:53.689Z,51.67
2023-03-24T04:11:49.515Z,51.35
2023-03-24T04:15:11.226Z,51.68
2023-03-24T04:18:41.408Z,52.29
2023-03-24T04:21:27.932Z,52.73
2023-03-24T04:24:12.373Z,53.09
2023-03-24T04:27:00.932Z,54.30
2023-03-24T04:29:46.944Z,54.85
2023-03-24T04:32:46.872Z,55.60
2023-03-24T04:35:49.392Z,55.88
2023-03-24T04:38:28.471Z,55.91
2023-03-24T04:41:09.905Z,56.24
2023-03-24T04:43:39.258Z,55.61
2023-03-24T04:46:09.742Z,56.44
2023-03-24T04:48:52.471Z,56.10
2023-03-24T04:51:28.869Z,56.31
2023-03-24T04:54:06.157Z,56.38
2023-03-24T04:56:48.747Z,56.85
2023-03-24T04:59:34.855Z,57.35
2023-03-24T05:02:05.129Z,57.76
2023-03-24T05:04:40.585Z,57.73
2023-03-24T05:07:18.939Z,57.48
2023-03-24T05:09:49.434Z,57.78
2023-03-24T05:12:18.118Z,57.81
2023-03-24T05:15:04.337Z,58.17
2023-03-24T05:17:35.380Z,58.83
2023-03-24T05:20:07.001Z,59.22
2023-03-24T05:22:36.633Z,59.06
2023-03-24T05:25:04.557Z,59.43
2023-03-24T05:27:32.958Z,59.25
2023-03-24T05:30:12.794Z,59.66
2023-03-24T05:32:40.603Z,59.61
2023-03-24T05:35:09.219Z,59.85
2023-03-24T05:37:39.062Z,59.91
2023-03-24T05:40:07.417Z,60.19
2023-03-24T05:42:56.799Z,60.28
2023-03-24T05:45:27.257Z,60.18
2023-03-24T05:47:54.862Z,60.22
2023-03-24T05:50:31.972Z,60.18
2023-03-24T05:52:59.186Z,60.02
2023-03-24T05:56:01.378Z,60.25
2023-03-24T05:58:51.592Z,59.90
2023-03-24T06:01:19.688Z,60.15
2023-03-24T06:03:49.445Z,61.11
2023-03-24T06:06:17.066Z,61.63
2023-03-24T06:08:45.212Z,61.33
2023-03-24T06:11:14.117Z,61.11
2023-03-24T06:13:51.310Z,60.96
2023-03-24T06:16:24.074Z,60.51
2023-03-24T06:18:57.175Z,60.64
2023-03-24T06:21:51.861Z,60.51
2023-03-24T06:24:24.132Z,60.76
2023-03-24T06:26:52.191Z,60.68
2023-03-24T06:29:19.509Z,60.62
2023-03-24T06:31:49.178Z,61.19
2023-03-24T06:34:17.050Z,60.75
2023-03-24T06:36:52.707Z,60.87
2023-03-24T06:39:19.918Z,60.50
2023-03-24T06:41:47.400Z,60.72
2023-03-24T06:44:14.659Z,60.77
2023-03-24T06:46:43.025Z,60.70
2023-03-24T06:49:11.077Z,60.96
2023-03-24T06:51:38.166Z,61.04
2023-03-24T06:54:05.568Z,60.99
2023-03-24T06:56:35.725Z,61.10
2023-03-24T06:59:04.540Z,61.11
2023-03-24T07:01:35.240Z,61.07
2023-03-24T07:04:16.121Z,60.70
2023-03-24T07:07:08.558Z,60.90
2023-03-24T07:09:41.957Z,60.24
2023-03-24T07:12:09.466Z,59.78
2023-03-24T07:14:40.931Z,59.52
2023-03-24T07:17:08.480Z,58.93
2023-03-24T07:19:49.555Z,59.48
2023-03-24T07:22:37.146Z,59.85
2023-03-24T07:25:36.655Z,59.87
2023-03-24T07:28:14.016Z,59.67
2023-03-24T07:30:41.296Z,59.68
2023-03-24T07:33:12.943Z,59.59
2023-03-24T07:35:46.172Z,59.61
2023-03-24T07:38:13.468Z,59.94
2023-03-24T07:40:40.514Z,60.02
2023-03-24T07:43:07.766Z,59.94
2023-03-24T07:45:52.845Z,59.88
2023-03-24T07:48:19.826Z,60.36
2023-03-24T07:50:47.938Z,59.66
2023-03-24T07:53:34.155Z,60.19
2023-03-24T07:56:02.424Z,60.82
2023-03-24T07:58:30.145Z,60.67
2023-03-24T08:01:17.402Z,61.02
2023-03-24T08:03:49.542Z,60.59
2023-03-24T08:06:16.690Z,60.86
2023-03-24T08:08:52.886Z,60.34
2023-03-24T08:11:20.140Z,60.35
2023-03-24T08:13:47.268Z,60.04
2023-03-24T08:16:14.296Z,60.13
2023-03-24T08:18:41.149Z,59.96
2023-03-24T08:21:07.975Z,60.60
2023-03-24T08:23:37.095Z,60.67
2023-03-24T08:26:04.008Z,60.69
2023-03-24T08:28:30.933Z,60.93
2023-03-24T08:30:57.909Z,60.50
2023-03-24T08:33:24.997Z,60.89
2023-03-24T08:35:57.674Z,61.11
2023-03-24T08:38:30.774Z,61.06
2023-03-24T08:41:02.235Z,61.26
2023-03-24T08:43:30.779Z,61.09
2023-03-24T08:45:58.789Z,61.17
2023-03-24T08:48:26.259Z,61.35
2023-03-24T08:50:53.360Z,61.51
2023-03-24T08:53:20.788Z,61.14
2023-03-24T08:55:47.788Z,61.48
2023-03-24T08:58:20.528Z,61.52
2023-03-24T09:00:48.731Z,61.31
2023-03-24T09:03:18.181Z,60.89
2023-03-24T09:05:46.606Z,60.87
2023-03-24T09:08:21.442Z,60.93
2023-03-24T09:10:50.009Z,61.50
2023-03-24T09:13:20.083Z,60.79
2023-03-24T09:15:53.842Z,60.55
2023-03-24T09:18:22.293Z,60.50
2023-03-24T09:20:49.745Z,61.14
2023-03-24T09:23:17.462Z,60.91
2023-03-24T09:25:44.265Z,60.96
2023-03-24T09:28:11.317Z,60.94
2023-03-24T09:30:38.108Z,60.78
2023-03-24T09:33:04.862Z,60.53
2023-03-24T09:35:31.943Z,60.54
2023-03-24T09:37:59.162Z,60.35
2023-03-24T09:40:28.803Z,60.58
2023-03-24T09:43:05.599Z,60.77
2023-03-24T09:45:41.656Z,60.49
2023-03-24T09:48:17.920Z,60.55
2023-03-24T09:51:24.603Z,60.62
2023-03-24T09:54:13.369Z,60.77
2023-03-24T09:56:44.182Z,60.67
2023-03-24T09:59:19.253Z,60.64
2023-03-24T10:01:46.661Z,60.25
2023-03-24T10:04:17.069Z,60.17
2023-03-24T10:06:43.897Z,60.09
2023-03-24T10:09:19.761Z,59.74
2023-03-24T10:11:55.771Z,59.47
2023-03-24T10:14:47.417Z,59.28
2023-03-24T10:17:23.314Z,58.61
2023-03-24T10:20:13.127Z,58.30
2023-03-24T10:22:48.406Z,58.12
2023-03-24T10:25:22.799Z,57.91
2023-03-24T10:27:57.289Z,58.42
2023-03-24T10:30:28.884Z,58.58
2023-03-24T10:32:55.748Z,58.84
2023-03-24T10:35:30.130Z,58.50
2023-03-24T10:38:00.983Z,58.63
2023-03-24T10:40:33.458Z,59.31
2023-03-24T10:43:06.275Z,59.27
2023-03-24T10:45:36.839Z,58.88
2023-03-24T10:48:04.326Z,58.28
2023-03-24T10:50:35.998Z,58.61
2023-03-24T10:53:30.386Z,58.25
2023-03-24T10:55:57.081Z,59.03
2023-03-24T10:58:36.021Z,58.00
2023-03-24T11:01:03.709Z,60.70
2023-03-24T11:03:35.012Z,63.96
2023-03-24T11:06:04.432Z,63.53
2023-03-24T11:08:38.913Z,63.19
2023-03-24T11:11:29.541Z,62.35
2023-03-24T11:14:03.555Z,60.70
2023-03-24T11:16:44.024Z,59.70
2023-03-24T11:19:23.140Z,58.07
2023-03-24T11:21:52.845Z,57.93
2023-03-24T11:24:20.899Z,58.07
2023-03-24T11:27:00.425Z,57.43
2023-03-24T11:29:30.336Z,55.94
2023-03-24T11:32:11.974Z,54.87
2023-03-24T11:34:44.400Z,55.11
2023-03-24T11:37:17.329Z,55.17
2023-03-24T11:39:44.686Z,54.40
2023-03-24T11:42:12.092Z,54.81
2023-03-24T11:44:38.958Z,54.82
2023-03-24T11:47:08.746Z,54.93
2023-03-24T11:49:42.024Z,54.04
2023-03-24T11:52:20.066Z,53.69
2023-03-24T11:54:46.806Z,53.43
2023-03-24T11:57:17.684Z,52.97
2023-03-24T12:00:19.618Z,52.80
2023-03-24T12:03:07.760Z,52.73
2023-03-24T12:05:42.858Z,53.37
2023-03-24T12:08:18.897Z,52.71
2023-03-24T12:11:06.629Z,52.26
2023-03-24T12:13:37.250Z,51.69
2023-03-24T12:16:07.800Z,51.89
2023-03-24T12:18:52.676Z,51.63
2023-03-24T12:21:34.486Z,51.73
2023-03-24T12:24:30.773Z,51.65
2023-03-24T12:27:01.220Z,49.99
2023-03-24T12:29:32.341Z,49.29
2023-03-24T12:32:14.948Z,45.34
2023-03-24T12:35:09.687Z,41.76
2023-03-24T12:37:54.614Z,40.47
2023-03-24T12:40:41.384Z,42.25
2023-03-24T12:43:37.895Z,42.69
2023-03-24T12:46:21.729Z,42.35
2023-03-24T12:49:07.074Z,41.86
2023-03-24T12:51:47.759Z,40.50
2023-03-24T12:54:35.619Z,39.99
2023-03-24T12:57:08.195Z,40.81
2023-03-24T12:59:59.474Z,40.34
2023-03-24T13:02:42.680Z,40.95
2023-03-24T13:05:16.922Z,40.34
2023-03-24T13:07:48.435Z,41.73
2023-03-24T13:10:23.180Z,41.59
2023-03-24T13:13:02.601Z,41.12
2023-03-24T13:15:35.891Z,39.99
2023-03-24T13:18:11.820Z,40.98
2023-03-24T13:20:58.048Z,42.08
2023-03-24T13:23:35.839Z,40.63
2023-03-24T13:26:34.080Z,40.19
2023-03-24T13:29:03.926Z,39.30
2023-03-24T13:31:38.154Z,39.20
2023-03-24T13:34:10.808Z,38.90
2023-03-24T13:36:50.386Z,37.84
2023-03-24T13:39:21.396Z,39.03
2023-03-24T13:41:53.833Z,38.88
2023-03-24T13:44:22.848Z,39.37
2023-03-24T13:47:13.773Z,39.45
2023-03-24T13:49:43.225Z,38.93
2023-03-24T13:52:35.320Z,37.99
2023-03-24T13:55:08.510Z,37.99
2023-03-24T13:57:40.180Z,38.63
2023-03-24T14:00:22.438Z,39.15
2023-03-24T14:02:55.432Z,37.86
2023-03-24T14:05:22.087Z,38.44
2023-03-24T14:08:13.333Z,37.25
2023-03-24T14:10:45.398Z,36.97
2023-03-24T14:13:12.146Z,36.57
2023-03-24T14:15:52.343Z,36.01
2023-03-24T14:18:26.020Z,35.78
2023-03-24T14:20:56.236Z,36.11
2023-03-24T14:23:35.569Z,35.24
2023-03-24T14:26:02.322Z,35.07
2023-03-24T14:28:36.934Z,33.83
2023-03-24T14:31:18.571Z,33.60
2023-03-24T14:33:54.637Z,33.86
2023-03-24T14:36:41.057Z,32.33
2023-03-24T14:39:08.962Z,32.78
2023-03-24T14:41:39.164Z,33.08
2023-03-24T14:44:06.538Z,33.65
2023-03-24T14:46:42.208Z,34.15
2023-03-24T14:49:20.832Z,34.60
2023-03-24T14:52:09.243Z,35.10
2023-03-24T14:54:46.443Z,35.47
2023-03-24T14:57:41.564Z,33.59
2023-03-24T15:00:18.929Z,33.94
2023-03-24T15:02:49.308Z,33.76
2023-03-24T15:05:25.577Z,34.14
2023-03-24T15:08:03.413Z,34.25
2023-03-24T15:10:39.487Z,34.47
2023-03-24T15:13:18.642Z,34.98
2023-03-24T15:15:47.655Z,34.91
2023-03-24T15:18:18.818Z,34.97
2023-03-24T15:20:46.272Z,35.33
2023-03-24T15:23:22.273Z,34.72
2023-03-24T15:25:48.976Z,34.43
2023-03-24T15:28:26.749Z,34.31
2023-03-24T15:30:54.773Z,34.11
2023-03-24T15:33:21.820Z,33.94
2023-03-24T15:35:58.307Z,33.21
2023-03-24T15:38:31.314Z,33.18
2023-03-24T15:41:07.906Z,34.17
2023-03-24T15:43:43.992Z,34.43
2023-03-24T15:46:27.368Z,34.30
2023-03-24T15:48:59.254Z,34.72
2023-03-24T15:51:49.489Z,34.91
2023-03-24T15:54:22.945Z,35.36
2023-03-24T15:57:02.103Z,34.21
2023-03-24T15:59:37.231Z,33.70
2023-03-24T16:02:12.336Z,34.54
2023-03-24T16:04:40.914Z,34.30
2023-03-24T16:07:07.599Z,33.65
2023-03-24T16:09:41.030Z,33.96
2023-03-24T16:12:11.470Z,34.06
2023-03-24T16:14:38.895Z,34.34
2023-03-24T16:17:07.189Z,34.30
2023-03-24T16:19:34.055Z,34.00
2023-03-24T16:22:00.880Z,34.05
2023-03-24T16:24:27.513Z,34.16
2023-03-24T16:26:54.316Z,33.95
2023-03-24T16:29:23.024Z,33.74
2023-03-24T16:31:52.396Z,34.10
2023-03-24T16:34:21.005Z,33.84
2023-03-24T16:36:49.604Z,33.91
2023-03-24T16:39:21.796Z,34.10
2023-03-24T16:41:48.960Z,34.00
2023-03-24T16:44:17.483Z,34.55
2023-03-24T16:46:46.867Z,34.09
2023-03-24T16:49:19.048Z,33.62
2023-03-24T16:51:47.121Z,34.58
2023-03-24T16:54:14.232Z,34.72
2023-03-24T16:56:42.448Z,35.15
2023-03-24T16:59:10.650Z,35.33
2023-03-24T17:01:39.841Z,35.27
2023-03-24T17:04:34.108Z,35.90
2023-03-24T17:07:08.360Z,36.73
2023-03-24T17:09:36.241Z,36.89
2023-03-24T17:12:04.472Z,36.54
2023-03-24T17:14:32.160Z,36.59
2023-03-24T17:16:59.681Z,36.84
2023-03-24T17:19:27.127Z,37.14
2023-03-24T17:22:01.797Z,37.13
2023-03-24T17:24:36.000Z,37.59
2023-03-24T17:27:03.408Z,36.99
2023-03-24T17:29:30.261Z,36.95
2023-03-24T17:31:57.053Z,37.42
2023-03-24T17:34:23.782Z,37.10
2023-03-24T17:36:51.764Z,37.17
2023-03-24T17:39:20.016Z,37.43
2023-03-24T17:41:46.816Z,36.86
2023-03-24T17:44:14.459Z,37.37
2023-03-24T17:46:41.526Z,37.47
2023-03-24T17:49:08.480Z,38.18
2023-03-24T17:51:35.389Z,37.99
2023-03-24T17:54:02.623Z,37.79
2023-03-24T17:56:29.845Z,37.65
2023-03-24T17:58:59.118Z,37.91
2023-03-24T18:01:29.884Z,37.68
2023-03-24T18:03:58.093Z,37.81
2023-03-24T18:06:27.417Z,38.45
2023-03-24T18:08:55.006Z,38.60
2023-03-24T18:11:26.284Z,38.75
2023-03-24T18:13:52.988Z,38.49
2023-03-24T18:16:21.775Z,39.03
2023-03-24T18:18:50.370Z,38.84
2023-03-24T18:21:17.762Z,38.46
2023-03-24T18:23:48.648Z,38.98
2023-03-24T18:26:17.243Z,38.50
2023-03-24T18:28:46.066Z,38.92
2023-03-24T18:31:18.899Z,39.37
2023-03-24T18:33:47.605Z,39.37
2023-03-24T18:36:26.372Z,39.49
2023-03-24T18:39:01.134Z,40.04
2023-03-24T18:41:29.986Z,39.68
2023-03-24T18:43:59.445Z,39.67
2023-03-24T18:46:39.353Z,40.54
2023-03-24T18:49:10.759Z,40.67
2023-03-24T18:51:37.732Z,40.79
2023-03-24T18:54:08.320Z,42.21
2023-03-24T18:56:39.923Z,44.84
2023-03-24T18:59:09.814Z,48.57
2023-03-24T19:01:39.414Z,50.07
2023-03-24T19:04:06.500Z,51.05
2023-03-24T19:06:35.418Z,52.75
2023-03-24T19:09:02.640Z,52.20
2023-03-24T19:11:29.838Z,52.69
2023-03-24T19:13:57.167Z,53.13
2023-03-24T19:16:24.145Z,53.16
2023-03-24T19:18:51.128Z,53.84
2023-03-24T19:21:19.842Z,53.66
2023-03-24T19:23:53.125Z,53.72
2023-03-24T19:30:34.127Z,54.03
2023-03-24T19:33:02.063Z,54.30
2023-03-24T19:35:29.856Z,54.75
2023-03-24T19:37:57.083Z,54.45
2023-03-24T19:40:24.373Z,54.54
2023-03-24T19:42:53.254Z,54.87
2023-03-24T19:45:55.591Z,54.87
2023-03-24T19:49:01.572Z,55.11
2023-03-24T19:51:38.944Z,55.44
2023-03-24T19:54:19.862Z,56.17
2023-03-24T19:56:49.174Z,57.67
2023-03-24T19:59:23.690Z,58.13
2023-03-24T20:01:52.312Z,57.55
2023-03-24T20:04:31.542Z,56.97
2023-03-24T20:07:44.443Z,56.29
2023-03-24T20:10:55.635Z,54.39
2023-03-24T20:17:35.718Z,54.61
2023-03-24T20:20:10.372Z,54.73
2023-03-24T20:22:52.244Z,53.53
2023-03-24T20:25:59.142Z,54.06
2023-03-24T20:28:22.301Z,54.63
2023-03-24T20:31:29.083Z,54.56
2023-03-24T20:33:57.157Z,53.86
2023-03-24T20:36:23.904Z,54.32
2023-03-24T20:38:54.277Z,55.04
2023-03-24T20:41:22.069Z,54.79
2023-03-24T20:43:49.077Z,55.32
2023-03-24T20:46:17.875Z,55.54
2023-03-24T20:48:45.880Z,55.75
2023-03-24T20:54:16.512Z,57.15
2023-03-24T20:56:49.034Z,56.89
2023-03-24T20:59:18.484Z,57.16
2023-03-24T21:01:54.915Z,57.56
2023-03-24T21:04:25.474Z,57.46
2023-03-24T21:06:54.557Z,56.42
2023-03-24T21:09:25.317Z,55.60
2023-03-24T21:12:29.340Z,58.14
2023-03-24T21:15:00.407Z,57.65
2023-03-24T21:20:38.760Z,56.30
2023-03-24T21:23:08.142Z,54.93
2023-03-24T21:25:36.680Z,54.48
2023-03-24T21:28:04.075Z,54.41
2023-03-24T21:30:31.518Z,54.26
2023-03-24T21:32:59.576Z,54.29
2023-03-24T21:35:26.983Z,54.17
2023-03-24T21:37:54.456Z,54.54
2023-03-24T21:40:24.559Z,54.58
2023-03-24T21:42:53.576Z,54.09
2023-03-24T21:45:23.627Z,54.47
2023-03-24T21:47:50.928Z,54.46
2023-03-24T21:50:22.714Z,54.98
2023-03-24T21:52:51.302Z,54.51
2023-03-24T21:55:20.414Z,54.03
2023-03-24T21:57:49.913Z,54.67
2023-03-24T22:00:19.601Z,54.69
2023-03-24T22:02:47.810Z,54.88
2023-03-24T22:05:17.171Z,55.21
2023-03-24T22:07:51.854Z,56.13
2023-03-24T22:10:22.683Z,56.50
2023-03-24T22:12:53.582Z,55.80
2023-03-24T22:15:21.336Z,55.62
2023-03-24T22:17:48.149Z,55.57
2023-03-24T22:20:15.875Z,55.01
2023-03-24T22:22:43.099Z,55.20
2023-03-24T22:25:13.163Z,54.91
2023-03-24T22:27:40.135Z,55.05
2023-03-24T22:30:10.609Z,55.57
2023-03-24T22:32:37.386Z,55.89
2023-03-24T22:35:04.585Z,55.73
2023-03-24T22:37:32.493Z,56.79
2023-03-24T22:39:59.266Z,55.99
2023-03-24T22:42:25.973Z,56.20
2023-03-24T22:44:52.643Z,55.97
2023-03-24T22:47:19.348Z,56.10
2023-03-24T22:49:46.132Z,56.39
2023-03-24T22:52:12.779Z,56.79
2023-03-24T22:54:40.281Z,56.59
2023-03-24T22:57:07.399Z,56.38
2023-03-24T22:59:35.583Z,57.03
2023-03-24T23:02:09.809Z,56.60
2023-03-24T23:04:39.855Z,56.82
2023-03-24T23:07:07.618Z,56.82
2023-03-24T23:09:34.450Z,56.96
2023-03-24T23:12:01.458Z,56.77
2023-03-24T23:14:28.360Z,56.34
2023-03-24T23:16:56.161Z,56.51
2023-03-24T23:19:23.298Z,56.51
2023-03-24T23:21:50.056Z,56.55
2023-03-24T23:24:17.092Z,56.01
2023-03-24T23:26:44.093Z,55.90
2023-03-24T23:29:11.038Z,56.71
2023-03-24T23:31:37.707Z,56.18
2023-03-24T23:34:07.553Z,55.61
2023-03-24T23:36:34.485Z,54.31
2023-03-24T23:39:01.179Z,55.04
2023-03-24T23:41:27.917Z,53.79
2023-03-24T23:43:55.109Z,52.05
2023-03-24T23:46:23.898Z,52.77
2023-03-24T23:48:50.938Z,50.25
2023-03-24T23:51:17.632Z,50.66
2023-03-24T23:53:44.691Z,50.77
2023-03-24T23:56:14.858Z,51.14
2023-03-24T23:58:42.722Z,50.56
